ěÝzenÝ letovÚho provozu ╚eskÚ republiky
Letiste: LKPR Aktualizace: 10.08.2022 18:04:32  UTC
 METAR LKPR 10.08. 18:00 RRA
METAR LKPR 101800Z 09007KT 070V190 CAVOK 21/10 Q1024 NOSIG=
 TAF LKPR 10.08. 17:00 ...
TAF LKPR 101700Z 1018/1200 08008KT CAVOK      BECMG 1100/1102 VRB02KT      BECMG 1108/1110 07010KT=